createdAt,value
2019-06-20T00:00:56.812Z,1002.35
2019-06-20T00:01:56.798Z,1002.37
2019-06-20T00:02:56.797Z,1002.40
2019-06-20T00:03:56.768Z,1002.39
2019-06-20T00:04:56.756Z,1002.37
2019-06-20T00:05:56.751Z,1002.38
2019-06-20T00:06:56.750Z,1002.34
2019-06-20T00:07:56.770Z,1002.31
2019-06-20T00:08:56.730Z,1002.31
2019-06-20T00:09:56.744Z,1002.33
2019-06-20T00:10:56.720Z,1002.30
2019-06-20T00:11:56.689Z,1002.29
2019-06-20T00:13:00.581Z,1002.32
2019-06-20T00:13:56.743Z,1002.27
2019-06-20T00:14:56.674Z,1002.31
2019-06-20T00:15:56.659Z,1002.29
2019-06-20T00:16:59.411Z,1002.32
2019-06-20T00:17:56.630Z,1002.32
2019-06-20T00:18:56.665Z,1002.35
2019-06-20T00:19:56.614Z,1002.33
2019-06-20T00:20:56.648Z,1002.38
2019-06-20T00:21:56.582Z,1002.44
2019-06-20T00:22:56.585Z,1002.41
2019-06-20T00:23:56.560Z,1002.43
2019-06-20T00:24:56.557Z,1002.48
2019-06-20T00:25:56.550Z,1002.51
2019-06-20T00:26:56.527Z,1002.48
2019-06-20T00:27:56.536Z,1002.47
2019-06-20T00:28:56.571Z,1002.52
2019-06-20T00:29:56.496Z,1002.50
2019-06-20T00:30:56.485Z,1002.46
2019-06-20T00:31:56.480Z,1002.51
2019-06-20T00:32:56.475Z,1002.50
2019-06-20T00:33:56.453Z,1002.53
2019-06-20T00:34:56.442Z,1002.51
2019-06-20T00:35:56.437Z,1002.50
2019-06-20T00:36:56.425Z,1002.42
2019-06-20T00:37:56.441Z,1002.42
2019-06-20T00:38:56.401Z,1002.40
2019-06-20T00:39:56.383Z,1002.37
2019-06-20T00:40:56.380Z,1002.41
2019-06-20T00:41:56.368Z,1002.40
2019-06-20T00:42:56.364Z,1002.46
2019-06-20T00:43:56.353Z,1002.44
2019-06-20T00:44:56.335Z,1002.49
2019-06-20T00:45:56.348Z,1002.50
2019-06-20T00:46:56.330Z,1002.55
2019-06-20T00:47:56.312Z,1002.56
2019-06-20T00:48:56.296Z,1002.49
2019-06-20T00:49:56.273Z,1002.55
2019-06-20T00:50:56.268Z,1002.56
2019-06-20T00:51:56.257Z,1002.58
2019-06-20T00:52:56.286Z,1002.65
2019-06-20T00:53:56.238Z,1002.64
2019-06-20T00:54:56.239Z,1002.69
2019-06-20T00:55:56.227Z,1002.69
2019-06-20T00:56:56.213Z,1002.67
2019-06-20T00:57:56.206Z,1002.64
2019-06-20T00:58:56.195Z,1002.69
2019-06-20T00:59:56.174Z,1002.66
2019-06-20T01:00:56.167Z,1002.70
2019-06-20T01:01:56.151Z,1002.64
2019-06-20T01:02:56.161Z,1002.65
2019-06-20T01:03:56.130Z,1002.68
2019-06-20T01:04:56.126Z,1002.70
2019-06-20T01:05:56.107Z,1002.70
2019-06-20T01:06:56.158Z,1002.69
2019-06-20T01:07:56.123Z,1002.66
2019-06-20T01:08:56.093Z,1002.72
2019-06-20T01:09:56.082Z,1002.70
2019-06-20T01:10:56.061Z,1002.71
2019-06-20T01:11:56.050Z,1002.73
2019-06-20T01:12:56.071Z,1002.68
2019-06-20T01:13:56.034Z,1002.66
2019-06-20T01:14:56.019Z,1002.69
2019-06-20T01:15:56.006Z,1002.69
2019-06-20T01:16:55.991Z,1002.69
2019-06-20T01:17:55.997Z,1002.71
2019-06-20T01:18:55.974Z,1002.66
2019-06-20T01:19:58.241Z,1002.70
2019-06-20T01:20:55.967Z,1002.68
2019-06-20T01:21:55.945Z,1002.76
2019-06-20T01:22:55.959Z,1002.78
2019-06-20T01:23:55.920Z,1002.73
2019-06-20T01:24:55.921Z,1002.73
2019-06-20T01:25:55.895Z,1002.77
2019-06-20T01:26:55.888Z,1002.76
2019-06-20T01:27:55.903Z,1002.75
2019-06-20T01:28:55.872Z,1002.79
2019-06-20T01:29:55.900Z,1002.82
2019-06-20T01:30:55.846Z,1002.81
2019-06-20T01:31:55.839Z,1002.82
2019-06-20T01:32:55.846Z,1002.87
2019-06-20T01:33:55.819Z,1002.91
2019-06-20T01:34:55.800Z,1002.93
2019-06-20T01:35:55.820Z,1002.89
2019-06-20T01:36:55.777Z,1002.91
2019-06-20T01:37:55.785Z,1002.95
2019-06-20T01:38:55.793Z,1002.90
2019-06-20T01:39:55.819Z,1002.92
2019-06-20T01:40:55.748Z,1002.92
2019-06-20T01:41:55.750Z,1002.93
2019-06-20T01:42:55.721Z,1002.92
2019-06-20T01:43:55.716Z,1002.97
2019-06-20T01:44:55.702Z,1002.95
2019-06-20T01:45:55.740Z,1002.94
2019-06-20T01:46:55.680Z,1002.90
2019-06-20T01:47:55.703Z,1002.92
2019-06-20T01:48:55.674Z,1002.92
2019-06-20T01:49:55.648Z,1002.95
2019-06-20T01:50:55.641Z,1002.95
2019-06-20T01:51:55.662Z,1002.94
2019-06-20T01:52:55.613Z,1002.93
2019-06-20T01:53:55.615Z,1002.94
2019-06-20T01:54:55.600Z,1002.93
2019-06-20T01:55:55.582Z,1002.92
2019-06-20T01:56:55.569Z,1002.91
2019-06-20T01:57:55.557Z,1002.91
2019-06-20T01:58:55.563Z,1002.90
2019-06-20T01:59:55.554Z,1002.91
2019-06-20T02:00:55.537Z,1002.91
2019-06-20T02:01:55.519Z,1002.90
2019-06-20T02:02:55.518Z,1002.92
2019-06-20T02:03:55.507Z,1002.92
2019-06-20T02:04:55.489Z,1002.85
2019-06-20T02:05:55.485Z,1002.92
2019-06-20T02:06:55.464Z,1002.91
2019-06-20T02:07:55.446Z,1002.90
2019-06-20T02:08:55.456Z,1002.93
2019-06-20T02:09:55.435Z,1002.94
2019-06-20T02:10:55.420Z,1002.93
2019-06-20T02:11:55.417Z,1002.96
2019-06-20T02:12:55.433Z,1002.95
2019-06-20T02:14:06.842Z,1002.96
2019-06-20T02:14:55.389Z,1002.98
2019-06-20T02:15:55.372Z,1003.01
2019-06-20T02:16:55.357Z,1003.02
2019-06-20T02:17:55.342Z,1002.97
2019-06-20T02:18:55.347Z,1003.01
2019-06-20T02:19:55.327Z,1002.96
2019-06-20T02:20:55.308Z,1002.94
2019-06-20T02:21:55.315Z,1002.92
2019-06-20T02:22:55.380Z,1002.89
2019-06-20T02:23:55.292Z,1002.91
2019-06-20T02:24:55.277Z,1002.87
2019-06-20T02:25:55.269Z,1002.91
2019-06-20T02:26:55.268Z,1002.85
2019-06-20T02:27:55.252Z,1002.83
2019-06-20T02:28:55.236Z,1002.89
2019-06-20T02:29:55.231Z,1002.86
2019-06-20T02:30:55.211Z,1002.85
2019-06-20T02:31:55.202Z,1002.89
2019-06-20T02:32:55.189Z,1002.88
2019-06-20T02:33:55.195Z,1002.90
2019-06-20T02:34:55.185Z,1002.90
2019-06-20T02:35:55.151Z,1002.91
2019-06-20T02:36:55.148Z,1002.97
2019-06-20T02:37:55.132Z,1002.99
2019-06-20T02:38:55.147Z,1003.02
2019-06-20T02:39:55.121Z,1003.03
2019-06-20T02:40:55.128Z,1003.06
2019-06-20T02:41:55.091Z,1003.05
2019-06-20T02:42:55.098Z,1003.12
2019-06-20T02:43:55.080Z,1003.10
2019-06-20T02:44:55.084Z,1003.15
2019-06-20T02:45:55.047Z,1003.16
2019-06-20T02:46:55.049Z,1003.18
2019-06-20T02:47:55.024Z,1003.21
2019-06-20T02:48:55.052Z,1003.21
2019-06-20T02:49:55.010Z,1003.26
2019-06-20T02:50:54.991Z,1003.26
2019-06-20T02:51:54.989Z,1003.30
2019-06-20T02:52:54.995Z,1003.28
2019-06-20T02:53:54.978Z,1003.30
2019-06-20T02:54:54.965Z,1003.26
2019-06-20T02:55:54.938Z,1003.29
2019-06-20T02:56:54.930Z,1003.29
2019-06-20T02:57:54.933Z,1003.27
2019-06-20T02:58:54.915Z,1003.30
2019-06-20T02:59:54.905Z,1003.29
2019-06-20T03:00:55.592Z,1003.32
2019-06-20T03:01:54.875Z,1003.35
2019-06-20T03:02:54.878Z,1003.39
2019-06-20T03:03:54.863Z,1003.39
2019-06-20T03:04:54.855Z,1003.40
2019-06-20T03:05:54.842Z,1003.40
2019-06-20T03:06:54.839Z,1003.42
2019-06-20T03:07:54.814Z,1003.40
2019-06-20T03:08:54.845Z,1003.46
2019-06-20T03:09:54.796Z,1003.45
2019-06-20T03:10:54.787Z,1003.49
2019-06-20T03:11:54.766Z,1003.48
2019-06-20T03:12:54.766Z,1003.53
2019-06-20T03:13:54.758Z,1003.51
2019-06-20T03:14:54.754Z,1003.53
2019-06-20T03:15:54.769Z,1003.54
2019-06-20T03:16:54.722Z,1003.56
2019-06-20T03:17:54.719Z,1003.54
2019-06-20T03:18:54.708Z,1003.60
2019-06-20T03:19:54.711Z,1003.62
2019-06-20T03:20:54.676Z,1003.63
2019-06-20T03:21:54.660Z,1003.65
2019-06-20T03:22:54.652Z,1003.62
2019-06-20T03:23:54.638Z,1003.71
2019-06-20T03:24:54.645Z,1003.73
2019-06-20T03:25:54.639Z,1003.74
2019-06-20T03:26:54.613Z,1003.77
2019-06-20T03:27:54.607Z,1003.80
2019-06-20T03:28:54.598Z,1003.75
2019-06-20T03:29:54.593Z,1003.85
2019-06-20T03:30:54.589Z,1003.78
2019-06-20T03:31:54.558Z,1003.79
2019-06-20T03:32:54.552Z,1003.80
2019-06-20T03:33:54.535Z,1003.80
2019-06-20T03:34:54.535Z,1003.85
2019-06-20T03:35:54.516Z,1003.87
2019-06-20T03:36:54.502Z,1003.87
2019-06-20T03:37:54.497Z,1003.92
2019-06-20T03:38:54.499Z,1003.97
2019-06-20T03:39:54.494Z,1003.99
2019-06-20T03:40:54.471Z,1003.98
2019-06-20T03:41:54.454Z,1004.06
2019-06-20T03:42:54.436Z,1004.02
2019-06-20T03:43:54.502Z,1003.99
2019-06-20T03:45:02.224Z,1004.03
2019-06-20T03:45:54.409Z,1004.00
2019-06-20T03:46:54.398Z,1004.03
2019-06-20T03:47:54.385Z,1004.04
2019-06-20T03:48:54.381Z,1004.02
2019-06-20T03:49:54.387Z,1004.00
2019-06-20T03:50:54.360Z,1004.04
2019-06-20T03:51:54.341Z,1004.04
2019-06-20T03:52:54.351Z,1004.03
2019-06-20T03:53:54.317Z,1003.98
2019-06-20T03:54:54.324Z,1004.00
2019-06-20T03:55:54.306Z,1004.02
2019-06-20T03:56:54.322Z,1004.04
2019-06-20T03:57:54.273Z,1004.03
2019-06-20T03:58:54.272Z,1004.04
2019-06-20T03:59:54.266Z,1004.05
2019-06-20T04:00:54.249Z,1004.05
2019-06-20T04:01:54.237Z,1004.10
2019-06-20T04:02:54.223Z,1004.07
2019-06-20T04:03:54.219Z,1004.08
2019-06-20T04:04:54.219Z,1004.09
2019-06-20T04:05:54.193Z,1004.06
2019-06-20T04:06:54.183Z,1004.07
2019-06-20T04:07:54.175Z,1004.06
2019-06-20T04:08:54.180Z,1004.07
2019-06-20T04:09:54.164Z,1004.07
2019-06-20T04:10:54.143Z,1004.10
2019-06-20T04:11:54.127Z,1004.07
2019-06-20T04:12:54.131Z,1004.07
2019-06-20T04:13:54.107Z,1004.11
2019-06-20T04:14:54.109Z,1004.12
2019-06-20T04:15:54.090Z,1004.13
2019-06-20T04:16:54.090Z,1004.13
2019-06-20T04:17:54.073Z,1004.14
2019-06-20T04:18:54.068Z,1004.17
2019-06-20T04:19:54.073Z,1004.14
2019-06-20T04:20:54.065Z,1004.12
2019-06-20T04:21:54.040Z,1004.15
2019-06-20T04:22:54.013Z,1004.14
2019-06-20T04:23:54.001Z,1004.11
2019-06-20T04:24:53.996Z,1004.11
2019-06-20T04:25:53.982Z,1004.06
2019-06-20T04:26:54.021Z,1004.04
2019-06-20T04:27:53.952Z,1004.05
2019-06-20T04:28:53.946Z,1004.08
2019-06-20T04:29:53.944Z,1004.12
2019-06-20T04:30:53.936Z,1004.09
2019-06-20T04:31:53.932Z,1004.12
2019-06-20T04:32:53.915Z,1004.12
2019-06-20T04:33:53.892Z,1004.13
2019-06-20T04:34:53.884Z,1004.18
2019-06-20T04:35:53.869Z,1004.12
2019-06-20T04:36:53.866Z,1004.14
2019-06-20T04:37:53.856Z,1004.16
2019-06-20T04:38:53.852Z,1004.21
2019-06-20T04:39:53.827Z,1004.25
2019-06-20T04:40:53.838Z,1004.24
2019-06-20T04:41:53.810Z,1004.26
2019-06-20T04:42:53.810Z,1004.22
2019-06-20T04:43:53.789Z,1004.30
2019-06-20T04:44:53.777Z,1004.25
2019-06-20T04:45:53.790Z,1004.28
2019-06-20T04:46:53.782Z,1004.25
2019-06-20T04:47:53.745Z,1004.30
2019-06-20T04:48:53.735Z,1004.25
2019-06-20T04:49:53.723Z,1004.27
2019-06-20T04:50:53.721Z,1004.28
2019-06-20T04:51:53.699Z,1004.33
2019-06-20T04:52:53.700Z,1004.29
2019-06-20T04:53:55.705Z,1004.31
2019-06-20T04:54:53.684Z,1004.30
2019-06-20T04:55:53.670Z,1004.29
2019-06-20T04:56:53.659Z,1004.30
2019-06-20T04:57:53.658Z,1004.33
2019-06-20T04:58:53.627Z,1004.35
2019-06-20T04:59:53.612Z,1004.38
2019-06-20T05:00:53.612Z,1004.40
2019-06-20T05:01:53.940Z,1004.36
2019-06-20T05:02:53.590Z,1004.39
2019-06-20T05:03:53.610Z,1004.38
2019-06-20T05:04:53.563Z,1004.38
2019-06-20T05:05:53.578Z,1004.37
2019-06-20T05:06:53.543Z,1004.40
2019-06-20T05:07:53.527Z,1004.38
2019-06-20T05:08:53.523Z,1004.41
2019-06-20T05:09:53.521Z,1004.39
2019-06-20T05:10:53.511Z,1004.39
2019-06-20T05:11:53.518Z,1004.44
2019-06-20T05:12:56.004Z,1004.40
2019-06-20T05:13:53.465Z,1004.42
2019-06-20T05:14:53.473Z,1004.40
2019-06-20T05:15:53.598Z,1004.38
2019-06-20T05:16:53.445Z,1004.37
2019-06-20T05:17:53.429Z,1004.38
2019-06-20T05:18:53.413Z,1004.40
2019-06-20T05:19:53.411Z,1004.40
2019-06-20T05:20:53.409Z,1004.45
2019-06-20T05:21:53.385Z,1004.43
2019-06-20T05:22:53.374Z,1004.42
2019-06-20T05:23:53.382Z,1004.46
2019-06-20T05:24:53.347Z,1004.47
2019-06-20T05:25:53.369Z,1004.48
2019-06-20T05:26:53.373Z,1004.47
2019-06-20T05:27:53.317Z,1004.48
2019-06-20T05:28:53.308Z,1004.50
2019-06-20T05:29:53.353Z,1004.53
2019-06-20T05:30:53.304Z,1004.52
2019-06-20T05:31:53.281Z,1004.53
2019-06-20T05:32:53.269Z,1004.54
2019-06-20T05:33:53.270Z,1004.58
2019-06-20T05:34:53.318Z,1004.59
2019-06-20T05:35:53.278Z,1004.59
2019-06-20T05:36:53.239Z,1004.69
2019-06-20T05:37:53.243Z,1004.69
2019-06-20T05:38:53.198Z,1004.67
2019-06-20T05:39:53.212Z,1004.70
2019-06-20T05:40:53.188Z,1004.73
2019-06-20T05:41:53.180Z,1004.75
2019-06-20T05:42:53.170Z,1004.77
2019-06-20T05:43:53.202Z,1004.77
2019-06-20T05:44:53.159Z,1004.75
2019-06-20T05:46:08.404Z,1004.77
2019-06-20T05:47:08.535Z,1004.79
2019-06-20T05:47:53.108Z,1004.76
2019-06-20T05:48:53.105Z,1004.77
2019-06-20T05:49:53.081Z,1004.74
2019-06-20T05:50:53.091Z,1004.75
2019-06-20T05:51:53.064Z,1004.76
2019-06-20T05:52:53.057Z,1004.76
2019-06-20T05:53:53.046Z,1004.76
2019-06-20T05:54:53.036Z,1004.80
2019-06-20T05:55:53.055Z,1004.80
2019-06-20T05:56:53.021Z,1004.80
2019-06-20T05:57:53.001Z,1004.85
2019-06-20T05:58:53.016Z,1004.78
2019-06-20T05:59:52.982Z,1004.79
2019-06-20T06:00:53.726Z,1004.83
2019-06-20T06:01:56.070Z,1004.84
2019-06-20T06:02:53.094Z,1004.82
2019-06-20T06:03:52.962Z,1004.85
2019-06-20T06:04:52.927Z,1004.85
2019-06-20T06:05:52.921Z,1004.88
2019-06-20T06:06:52.917Z,1004.91
2019-06-20T06:07:52.903Z,1004.88
2019-06-20T06:08:52.894Z,1004.90
2019-06-20T06:09:52.879Z,1004.93
2019-06-20T06:10:52.874Z,1004.91
2019-06-20T06:11:52.863Z,1004.87
2019-06-20T06:12:52.864Z,1004.89
2019-06-20T06:13:53.364Z,1004.87
2019-06-20T06:14:52.884Z,1004.88
2019-06-20T06:15:52.814Z,1004.88
2019-06-20T06:16:52.804Z,1004.92
2019-06-20T06:17:52.787Z,1004.91
2019-06-20T06:18:52.796Z,1004.88
2019-06-20T06:19:52.800Z,1004.89
2019-06-20T06:20:52.771Z,1004.86
2019-06-20T06:21:52.753Z,1004.85
2019-06-20T06:22:52.749Z,1004.85
2019-06-20T06:23:52.830Z,1004.84
2019-06-20T06:24:52.722Z,1004.84
2019-06-20T06:25:52.741Z,1004.86
2019-06-20T06:26:52.722Z,1004.86
2019-06-20T06:27:52.686Z,1004.86
2019-06-20T06:28:52.669Z,1004.86
2019-06-20T06:29:52.663Z,1004.87
2019-06-20T06:30:52.650Z,1004.87
2019-06-20T06:31:52.664Z,1004.87
2019-06-20T06:32:52.642Z,1004.89
2019-06-20T06:33:52.645Z,1004.86
2019-06-20T06:34:52.606Z,1004.87
2019-06-20T06:35:52.601Z,1004.85
2019-06-20T06:36:52.644Z,1004.83
2019-06-20T06:37:52.591Z,1004.89
2019-06-20T06:38:52.568Z,1004.82
2019-06-20T06:39:52.549Z,1004.85
2019-06-20T06:40:52.553Z,1004.88
2019-06-20T06:41:52.547Z,1004.84
2019-06-20T06:42:52.517Z,1004.85
2019-06-20T06:43:52.519Z,1004.85
2019-06-20T06:44:52.495Z,1004.84
2019-06-20T06:45:52.564Z,1004.90
2019-06-20T06:46:57.507Z,1004.90
2019-06-20T06:47:52.523Z,1004.90
2019-06-20T06:48:52.453Z,1004.93
2019-06-20T06:49:52.486Z,1004.89
2019-06-20T06:50:52.437Z,1004.89
2019-06-20T06:51:52.457Z,1004.90
2019-06-20T06:52:52.416Z,1004.92
2019-06-20T06:53:52.410Z,1004.84
2019-06-20T06:54:52.389Z,1004.87
2019-06-20T06:55:52.379Z,1004.90
2019-06-20T06:56:52.389Z,1004.90
2019-06-20T06:57:52.365Z,1004.88
2019-06-20T06:58:52.403Z,1004.89
2019-06-20T06:59:52.343Z,1004.92
2019-06-20T07:00:52.331Z,1004.90
2019-06-20T07:01:52.356Z,1004.88
2019-06-20T07:02:52.339Z,1004.90
2019-06-20T07:03:52.301Z,1004.88
2019-06-20T07:04:52.294Z,1004.93
2019-06-20T07:05:52.351Z,1004.97
2019-06-20T07:06:52.280Z,1004.95
2019-06-20T07:07:52.784Z,1004.98
2019-06-20T07:08:52.310Z,1004.98
2019-06-20T07:09:52.280Z,1005.01
2019-06-20T07:10:52.232Z,1004.98
2019-06-20T07:11:52.218Z,1004.98
2019-06-20T07:12:52.205Z,1004.97
2019-06-20T07:13:52.267Z,1004.92
2019-06-20T07:14:52.180Z,1004.99
2019-06-20T07:15:52.182Z,1004.94
2019-06-20T07:17:00.268Z,1004.97
2019-06-20T07:17:52.171Z,1004.96
2019-06-20T07:18:52.145Z,1004.94
2019-06-20T07:19:52.199Z,1004.97
2019-06-20T07:20:52.116Z,1004.92
2019-06-20T07:21:52.156Z,1004.97
2019-06-20T07:22:52.104Z,1004.90
2019-06-20T07:23:52.123Z,1004.91
2019-06-20T07:24:52.127Z,1004.86
2019-06-20T07:25:52.151Z,1004.90
2019-06-20T07:26:52.086Z,1004.89
2019-06-20T07:27:52.047Z,1004.84
2019-06-20T07:28:52.027Z,1004.86
2019-06-20T07:29:52.025Z,1004.85
2019-06-20T07:30:52.017Z,1004.89
2019-06-20T07:31:52.007Z,1004.83
2019-06-20T07:32:52.001Z,1004.81
2019-06-20T07:33:52.016Z,1004.78
2019-06-20T07:34:51.977Z,1004.80
2019-06-20T07:35:51.954Z,1004.78
2019-06-20T07:36:51.977Z,1004.83
2019-06-20T07:37:51.950Z,1004.78
2019-06-20T07:38:51.924Z,1004.79
2019-06-20T07:39:52.022Z,1004.80
2019-06-20T07:40:51.913Z,1004.83
2019-06-20T07:41:51.923Z,1004.79
2019-06-20T07:42:51.880Z,1004.83
2019-06-20T07:43:51.878Z,1004.82
2019-06-20T07:44:51.858Z,1004.81
2019-06-20T07:46:01.975Z,1004.85
2019-06-20T07:46:51.849Z,1004.87
2019-06-20T07:47:51.844Z,1004.81
2019-06-20T07:48:51.832Z,1004.80
2019-06-20T07:49:51.819Z,1004.80
2019-06-20T07:50:51.809Z,1004.81
2019-06-20T07:51:51.803Z,1004.81
2019-06-20T07:53:01.477Z,1004.85
2019-06-20T07:53:51.821Z,1004.81
2019-06-20T07:54:51.810Z,1004.81
2019-06-20T07:55:51.756Z,1004.85
2019-06-20T07:56:51.850Z,1004.79
2019-06-20T07:57:51.739Z,1004.79
2019-06-20T07:58:51.755Z,1004.81
2019-06-20T07:59:51.827Z,1004.82
2019-06-20T08:00:51.751Z,1004.82
2019-06-20T08:01:51.683Z,1004.82
2019-06-20T08:02:51.775Z,1004.85
2019-06-20T08:03:51.676Z,1004.80
2019-06-20T08:04:51.651Z,1004.85
2019-06-20T08:05:51.656Z,1004.86
2019-06-20T08:06:51.620Z,1004.80
2019-06-20T08:07:51.686Z,1004.81
2019-06-20T08:08:51.608Z,1004.82
2019-06-20T08:09:51.664Z,1004.76
2019-06-20T08:10:51.603Z,1004.82
2019-06-20T08:11:51.572Z,1004.78
2019-06-20T08:12:51.611Z,1004.77
2019-06-20T08:13:51.589Z,1004.77
2019-06-20T08:14:51.548Z,1004.72
2019-06-20T08:15:51.539Z,1004.75
2019-06-20T08:16:51.531Z,1004.81
2019-06-20T08:17:51.610Z,1004.77
2019-06-20T08:18:51.500Z,1004.79
2019-06-20T08:19:51.503Z,1004.87
2019-06-20T08:20:51.475Z,1004.88
2019-06-20T08:21:51.466Z,1004.88
2019-06-20T08:22:51.471Z,1004.93
2019-06-20T08:23:51.466Z,1004.82
2019-06-20T08:24:53.211Z,1004.77
2019-06-20T08:25:51.420Z,1004.86
2019-06-20T08:26:51.420Z,1004.85
2019-06-20T08:27:51.467Z,1004.93
2019-06-20T08:29:07.323Z,1004.93
2019-06-20T08:29:51.405Z,1004.84
2019-06-20T08:30:51.382Z,1004.88
2019-06-20T08:31:51.376Z,1004.84
2019-06-20T08:32:51.456Z,1004.85
2019-06-20T08:33:51.400Z,1004.85
2019-06-20T08:34:51.335Z,1004.84
2019-06-20T08:35:51.354Z,1004.84
2019-06-20T08:36:51.311Z,1004.79
2019-06-20T08:37:51.325Z,1004.78
2019-06-20T08:38:51.307Z,1004.77
2019-06-20T08:39:51.290Z,1004.80
2019-06-20T08:40:51.272Z,1004.78
2019-06-20T08:41:51.259Z,1004.77
2019-06-20T08:42:51.294Z,1004.86
2019-06-20T08:43:51.282Z,1004.86
2019-06-20T08:44:51.236Z,1004.82
2019-06-20T08:45:51.236Z,1004.85
2019-06-20T08:46:51.230Z,1004.84
2019-06-20T08:47:51.226Z,1004.86
2019-06-20T08:48:51.623Z,1004.93
2019-06-20T08:49:51.189Z,1004.92
2019-06-20T08:50:51.167Z,1004.88
2019-06-20T08:51:51.170Z,1004.91
2019-06-20T08:52:51.167Z,1004.90
2019-06-20T08:53:51.176Z,1004.87
2019-06-20T08:54:51.114Z,1004.80
2019-06-20T08:55:51.105Z,1004.79
2019-06-20T08:56:51.097Z,1004.87
2019-06-20T08:57:51.124Z,1004.81
2019-06-20T08:58:51.125Z,1004.83
2019-06-20T08:59:51.118Z,1004.86
2019-06-20T09:00:51.079Z,1004.76
2019-06-20T09:01:51.065Z,1004.79
2019-06-20T09:02:51.044Z,1004.81
2019-06-20T09:03:51.087Z,1004.78
2019-06-20T09:04:51.040Z,1004.79
2019-06-20T09:05:51.004Z,1004.76
2019-06-20T09:06:51.005Z,1004.79
2019-06-20T09:07:51.048Z,1004.84
2019-06-20T09:08:51.031Z,1004.82
2019-06-20T09:09:51.057Z,1004.82
2019-06-20T09:10:50.953Z,1004.85
2019-06-20T09:11:50.960Z,1004.81
2019-06-20T09:12:50.937Z,1004.81
2019-06-20T09:13:50.990Z,1004.82
2019-06-20T09:14:50.900Z,1004.80
2019-06-20T09:15:50.898Z,1004.84
2019-06-20T09:16:52.275Z,1004.84
2019-06-20T09:17:52.952Z,1004.84
2019-06-20T09:18:53.292Z,1004.83
2019-06-20T09:19:51.717Z,1004.84
2019-06-20T09:20:52.748Z,1004.85
2019-06-20T09:21:52.548Z,1004.85
2019-06-20T09:22:50.831Z,1004.83
2019-06-20T09:23:52.368Z,1004.84
2019-06-20T09:24:52.028Z,1004.82
2019-06-20T09:25:50.878Z,1004.86
2019-06-20T09:26:51.146Z,1004.86
2019-06-20T09:27:52.631Z,1004.90
2019-06-20T09:28:52.215Z,1004.89
2019-06-20T09:29:51.562Z,1004.88
2019-06-20T09:30:52.233Z,1004.92
2019-06-20T09:31:52.467Z,1004.97
2019-06-20T09:32:52.197Z,1004.90
2019-06-20T09:33:52.180Z,1004.94
2019-06-20T09:34:51.832Z,1004.92
2019-06-20T09:35:52.157Z,1004.88
2019-06-20T09:36:52.135Z,1004.92
2019-06-20T09:37:50.896Z,1004.88
2019-06-20T09:38:52.077Z,1004.95
2019-06-20T09:39:51.726Z,1004.91
2019-06-20T09:40:51.890Z,1005.01
2019-06-20T09:41:51.614Z,1004.97
2019-06-20T09:42:51.693Z,1005.01
2019-06-20T09:43:51.608Z,1005.01
2019-06-20T09:44:52.353Z,1004.98
2019-06-20T09:45:51.376Z,1005.00
2019-06-20T09:46:51.173Z,1005.01
2019-06-20T09:47:52.055Z,1005.00
2019-06-20T09:48:51.043Z,1005.01
2019-06-20T09:49:52.467Z,1004.99
2019-06-20T09:50:51.740Z,1005.02
2019-06-20T09:51:50.524Z,1005.04
2019-06-20T09:52:51.586Z,1005.03
2019-06-20T09:53:51.786Z,1005.04
2019-06-20T09:54:51.643Z,1005.06
2019-06-20T09:55:51.662Z,1005.03
2019-06-20T09:56:53.486Z,1005.01
2019-06-20T09:57:51.913Z,1005.04
2019-06-20T09:58:51.134Z,1005.04
2019-06-20T10:00:03.314Z,1005.06
2019-06-20T10:00:50.838Z,1005.04
2019-06-20T10:01:51.448Z,1005.04
2019-06-20T10:02:52.113Z,1005.03
2019-06-20T10:03:50.597Z,1005.06
2019-06-20T10:04:50.713Z,1005.06
2019-06-20T10:05:50.720Z,1005.05
2019-06-20T10:06:50.414Z,1005.04
2019-06-20T10:07:50.410Z,1005.06
2019-06-20T10:08:50.385Z,1005.06
2019-06-20T10:09:50.328Z,1005.02
2019-06-20T10:10:50.711Z,1005.06
2019-06-20T10:11:50.310Z,1005.03
2019-06-20T10:12:51.643Z,1005.02
2019-06-20T10:13:50.298Z,1005.07
2019-06-20T10:14:51.562Z,1005.09
2019-06-20T10:15:51.485Z,1005.10
2019-06-20T10:16:52.250Z,1005.11
2019-06-20T10:17:50.256Z,1005.10
2019-06-20T10:18:50.274Z,1005.08
2019-06-20T10:19:50.241Z,1005.11
2019-06-20T10:20:51.158Z,1005.14
2019-06-20T10:21:50.255Z,1005.13
2019-06-20T10:22:50.940Z,1005.12
2019-06-20T10:23:50.191Z,1005.07
2019-06-20T10:24:51.235Z,1005.11
2019-06-20T10:25:51.483Z,1005.10
2019-06-20T10:26:51.386Z,1005.09
2019-06-20T10:27:51.410Z,1005.12
2019-06-20T10:28:51.423Z,1005.10
2019-06-20T10:29:51.085Z,1005.08
2019-06-20T10:30:51.124Z,1005.08
2019-06-20T10:31:50.817Z,1005.11
2019-06-20T10:32:51.009Z,1005.08
2019-06-20T10:33:50.912Z,1005.05
2019-06-20T10:34:50.617Z,1005.07
2019-06-20T10:35:50.361Z,1005.01
2019-06-20T10:36:50.183Z,1005.01
2019-06-20T10:37:50.322Z,1004.99
2019-06-20T10:38:50.352Z,1005.01
2019-06-20T10:39:50.054Z,1004.98
2019-06-20T10:40:49.992Z,1004.98
2019-06-20T10:41:50.283Z,1005.01
2019-06-20T10:42:50.318Z,1005.06
2019-06-20T10:43:49.975Z,1005.03
2019-06-20T10:44:50.000Z,1005.05
2019-06-20T10:45:49.958Z,1005.07
2019-06-20T10:46:51.336Z,1005.05
2019-06-20T10:47:50.963Z,1005.04
2019-06-20T10:48:50.105Z,1005.01
2019-06-20T10:49:50.406Z,1005.03
2019-06-20T10:50:49.896Z,1005.03
2019-06-20T10:51:49.893Z,1005.08
2019-06-20T10:52:50.167Z,1005.06
2019-06-20T10:53:51.360Z,1005.07
2019-06-20T10:54:49.855Z,1005.10
2019-06-20T10:55:51.122Z,1005.08
2019-06-20T10:56:51.007Z,1005.09
2019-06-20T10:57:50.424Z,1005.10
2019-06-20T10:58:50.721Z,1005.07
2019-06-20T10:59:50.880Z,1005.10
2019-06-20T11:00:50.404Z,1005.14
2019-06-20T11:01:50.683Z,1005.13
2019-06-20T11:02:51.213Z,1005.10
2019-06-20T11:03:50.023Z,1005.04
2019-06-20T11:04:49.843Z,1005.04
2019-06-20T11:05:49.906Z,1005.05
2019-06-20T11:06:49.775Z,1004.97
2019-06-20T11:07:50.032Z,1005.01
2019-06-20T11:08:49.702Z,1005.04
2019-06-20T11:09:49.700Z,1005.00
2019-06-20T11:10:49.738Z,1004.91
2019-06-20T11:11:49.672Z,1004.90
2019-06-20T11:12:54.914Z,1004.89
2019-06-20T11:13:49.643Z,1004.91
2019-06-20T11:14:49.653Z,1004.88
2019-06-20T11:15:49.709Z,1004.93
2019-06-20T11:16:49.664Z,1004.90
2019-06-20T11:17:49.593Z,1004.89
2019-06-20T11:18:49.582Z,1004.90
2019-06-20T11:19:49.621Z,1004.85
2019-06-20T11:20:49.587Z,1004.84
2019-06-20T11:21:49.607Z,1004.86
2019-06-20T11:22:49.547Z,1004.91
2019-06-20T11:23:49.535Z,1004.89
2019-06-20T11:24:49.533Z,1004.89
2019-06-20T11:25:49.520Z,1004.88
2019-06-20T11:26:49.537Z,1004.89
2019-06-20T11:27:49.562Z,1004.87
2019-06-20T11:28:49.563Z,1004.85
2019-06-20T11:29:49.571Z,1004.84
2019-06-20T11:30:58.159Z,1004.84
2019-06-20T11:31:49.706Z,1004.81
2019-06-20T11:32:49.439Z,1004.77
2019-06-20T11:33:49.434Z,1004.74
2019-06-20T11:34:49.493Z,1004.75
2019-06-20T11:35:49.410Z,1004.78
2019-06-20T11:36:49.413Z,1004.77
2019-06-20T11:37:49.404Z,1004.77
2019-06-20T11:38:49.376Z,1004.76
2019-06-20T11:39:51.294Z,1004.76
2019-06-20T11:40:49.362Z,1004.76
2019-06-20T11:41:49.350Z,1004.75
2019-06-20T11:42:49.331Z,1004.77
2019-06-20T11:43:49.344Z,1004.78
2019-06-20T11:44:49.318Z,1004.79
2019-06-20T11:45:49.315Z,1004.84
2019-06-20T11:46:49.291Z,1004.90
2019-06-20T11:47:49.294Z,1004.96
2019-06-20T11:48:49.284Z,1005.04
2019-06-20T11:49:49.293Z,1004.99
2019-06-20T11:50:49.251Z,1005.03
2019-06-20T11:51:49.303Z,1005.00
2019-06-20T11:52:49.224Z,1005.04
2019-06-20T11:53:49.215Z,1005.05
2019-06-20T11:54:49.328Z,1004.99
2019-06-20T11:55:49.196Z,1004.97
2019-06-20T11:56:49.180Z,1004.98
2019-06-20T11:57:49.238Z,1004.99
2019-06-20T11:58:49.162Z,1005.05
2019-06-20T11:59:49.165Z,1005.06
2019-06-20T12:01:03.094Z,1005.04
2019-06-20T12:01:49.227Z,1005.06
2019-06-20T12:02:50.273Z,1005.04
2019-06-20T12:03:49.135Z,1005.04
2019-06-20T12:04:49.165Z,1005.02
2019-06-20T12:05:49.791Z,1004.92